createdAt,value
2018-10-15T00:00:31.830Z,6.27
2018-10-15T00:02:59.226Z,6.40
2018-10-15T00:05:26.727Z,6.63
2018-10-15T00:07:54.186Z,6.47
2018-10-15T00:10:21.667Z,6.43
2018-10-15T00:12:49.035Z,6.20
2018-10-15T00:15:21.937Z,6.53
2018-10-15T00:17:49.555Z,7.50
2018-10-15T00:20:16.929Z,6.60
2018-10-15T00:22:44.495Z,7.93
2018-10-15T00:25:11.874Z,6.63
2018-10-15T00:27:39.362Z,6.83
2018-10-15T00:30:07.400Z,6.67
2018-10-15T00:32:34.846Z,6.73
2018-10-15T00:35:02.335Z,6.63
2018-10-15T00:37:30.137Z,6.20
2018-10-15T00:39:57.905Z,7.00
2018-10-15T00:42:25.369Z,7.90
2018-10-15T00:44:52.781Z,7.40
2018-10-15T00:47:20.146Z,8.13
2018-10-15T00:49:47.601Z,7.00
2018-10-15T00:52:15.010Z,7.60
2018-10-15T00:54:42.554Z,7.07
2018-10-15T00:57:09.973Z,6.97
2018-10-15T00:59:37.457Z,6.97
2018-10-15T01:02:04.985Z,6.87
2018-10-15T01:04:32.362Z,6.37
2018-10-15T01:06:59.758Z,6.87
2018-10-15T01:09:27.254Z,6.97
2018-10-15T01:11:54.785Z,7.37
2018-10-15T01:14:22.242Z,7.67
2018-10-15T01:16:49.629Z,11.47
2018-10-15T01:19:17.140Z,8.07
2018-10-15T01:21:44.677Z,7.80
2018-10-15T01:24:12.226Z,7.27
2018-10-15T01:26:44.407Z,8.83
2018-10-15T01:29:13.561Z,7.87
2018-10-15T01:31:41.018Z,7.40
2018-10-15T01:34:09.113Z,9.27
2018-10-15T01:36:36.628Z,7.73
2018-10-15T01:39:06.138Z,7.07
2018-10-15T01:41:33.613Z,7.13
2018-10-15T01:44:00.994Z,8.63
2018-10-15T01:46:28.365Z,7.90
2018-10-15T01:48:55.885Z,8.00
2018-10-15T01:51:23.281Z,8.40
2018-10-15T01:53:50.653Z,8.70
2018-10-15T01:56:18.149Z,8.53
2018-10-15T01:58:45.622Z,9.07
2018-10-15T02:01:13.043Z,9.43
2018-10-15T02:03:40.577Z,9.40
2018-10-15T02:06:08.014Z,7.80
2018-10-15T02:08:35.466Z,9.73
2018-10-15T02:11:02.936Z,8.60
2018-10-15T02:13:30.373Z,8.97
2018-10-15T02:15:57.850Z,8.27
2018-10-15T02:18:25.304Z,8.73
2018-10-15T02:20:52.861Z,8.47
2018-10-15T02:23:20.308Z,8.83
2018-10-15T02:25:47.657Z,7.77
2018-10-15T02:28:15.033Z,7.73
2018-10-15T02:30:42.761Z,8.67
2018-10-15T02:33:10.338Z,8.80
2018-10-15T02:35:37.739Z,8.70
2018-10-15T02:38:05.571Z,8.80
2018-10-15T02:40:33.003Z,7.97
2018-10-15T02:43:00.396Z,8.43
2018-10-15T02:45:27.802Z,7.67
2018-10-15T02:47:55.171Z,8.17
2018-10-15T02:50:22.593Z,8.83
2018-10-15T02:52:50.045Z,8.90
2018-10-15T02:55:17.404Z,9.03
2018-10-15T02:57:44.801Z,8.93
2018-10-15T03:00:13.605Z,8.67
2018-10-15T03:02:41.409Z,8.17
2018-10-15T03:05:10.286Z,8.70
2018-10-15T03:07:37.657Z,8.60
2018-10-15T03:10:05.373Z,8.73
2018-10-15T03:12:32.764Z,8.40
2018-10-15T03:15:00.145Z,8.50
2018-10-15T03:17:27.501Z,8.47
2018-10-15T03:19:54.947Z,8.73
2018-10-15T03:22:22.309Z,10.63
2018-10-15T03:24:49.674Z,8.20
2018-10-15T03:27:17.059Z,8.33
2018-10-15T03:29:44.417Z,11.77
2018-10-15T03:32:11.886Z,8.83
2018-10-15T03:34:39.685Z,9.97
2018-10-15T03:37:07.603Z,10.10
2018-10-15T03:39:34.948Z,10.73
2018-10-15T03:42:02.349Z,17.57
2018-10-15T03:44:29.701Z,12.17
2018-10-15T03:46:57.045Z,9.77
2018-10-15T03:49:24.461Z,11.97
2018-10-15T03:51:51.805Z,10.60
2018-10-15T03:54:19.150Z,10.03
2018-10-15T03:56:46.514Z,9.47
2018-10-15T03:59:13.853Z,9.07
2018-10-15T04:01:41.208Z,9.07
2018-10-15T04:04:08.585Z,9.17
2018-10-15T04:06:35.937Z,9.40
2018-10-15T04:09:04.282Z,8.97
2018-10-15T04:11:31.780Z,10.17
2018-10-15T04:13:59.128Z,9.00
2018-10-15T04:16:26.844Z,9.27
2018-10-15T04:18:54.553Z,9.13
2018-10-15T04:21:21.953Z,9.73
2018-10-15T04:23:49.342Z,9.10
2018-10-15T04:26:16.733Z,9.37
2018-10-15T04:28:44.088Z,9.80
2018-10-15T04:31:11.634Z,9.07
2018-10-15T04:33:39.061Z,8.93
2018-10-15T04:36:06.422Z,9.03
2018-10-15T04:38:33.776Z,9.30
2018-10-15T04:41:01.157Z,9.17
2018-10-15T04:43:28.514Z,8.80
2018-10-15T04:45:55.864Z,8.90
2018-10-15T04:48:23.255Z,9.33
2018-10-15T04:50:50.741Z,9.17
2018-10-15T04:53:18.222Z,9.97
2018-10-15T04:55:45.668Z,9.87
2018-10-15T04:58:13.107Z,9.73
2018-10-15T05:00:40.469Z,9.10
2018-10-15T05:03:07.878Z,9.50
2018-10-15T05:05:35.229Z,9.20
2018-10-15T05:08:02.725Z,9.70
2018-10-15T05:10:30.131Z,9.87
2018-10-15T05:12:57.497Z,9.33
2018-10-15T05:15:24.837Z,9.50
2018-10-15T05:17:52.500Z,9.27
2018-10-15T05:20:19.836Z,9.43
2018-10-15T05:22:47.163Z,9.70
2018-10-15T05:25:14.589Z,9.53
2018-10-15T05:27:41.941Z,10.00
2018-10-15T05:30:09.714Z,10.37
2018-10-15T05:32:37.365Z,9.90
2018-10-15T05:35:05.613Z,9.67
2018-10-15T05:37:33.129Z,9.97
2018-10-15T05:40:00.527Z,10.03
2018-10-15T05:42:27.860Z,9.47
2018-10-15T05:44:55.213Z,9.73
2018-10-15T05:47:22.576Z,10.07
2018-10-15T05:49:49.925Z,9.30
2018-10-15T05:52:17.261Z,9.87
2018-10-15T05:54:44.660Z,10.60
2018-10-15T05:57:12.129Z,10.73
2018-10-15T05:59:39.469Z,10.50
2018-10-15T06:02:06.941Z,10.60
2018-10-15T06:04:34.376Z,10.60
2018-10-15T06:07:01.841Z,11.20
2018-10-15T06:09:29.249Z,10.13
2018-10-15T06:11:56.631Z,10.07
2018-10-15T06:14:23.985Z,11.87
2018-10-15T06:16:51.493Z,10.83
2018-10-15T06:19:18.869Z,11.83
2018-10-15T06:21:46.209Z,10.37
2018-10-15T06:24:13.614Z,10.50
2018-10-15T06:26:40.956Z,9.97
2018-10-15T06:29:08.325Z,10.17
2018-10-15T06:31:35.731Z,10.83
2018-10-15T06:34:03.141Z,10.60
2018-10-15T06:36:30.502Z,10.10
2018-10-15T06:38:58.112Z,10.03
2018-10-15T06:41:25.557Z,10.70
2018-10-15T06:43:53.013Z,10.70
2018-10-15T06:46:20.468Z,10.33
2018-10-15T06:48:47.846Z,10.60
2018-10-15T06:51:15.216Z,9.70
2018-10-15T06:53:42.679Z,10.30
2018-10-15T06:56:09.997Z,10.10
2018-10-15T06:58:37.373Z,8.60
2018-10-15T07:01:04.809Z,9.80
2018-10-15T07:03:32.395Z,11.20
2018-10-15T07:05:59.788Z,10.67
2018-10-15T07:08:27.649Z,10.43
2018-10-15T07:10:55.046Z,9.37
2018-10-15T07:13:22.472Z,10.33
2018-10-15T07:15:49.768Z,9.83
2018-10-15T07:18:17.321Z,11.10
2018-10-15T07:20:44.680Z,11.13
2018-10-15T07:23:12.134Z,10.80
2018-10-15T07:25:39.512Z,10.10
2018-10-15T07:28:06.928Z,10.23
2018-10-15T07:30:35.785Z,10.93
2018-10-15T07:33:03.234Z,10.27
2018-10-15T07:35:30.798Z,10.00
2018-10-15T07:37:58.204Z,10.20
2018-10-15T07:40:25.667Z,9.97
2018-10-15T07:42:52.986Z,10.13
2018-10-15T07:45:20.433Z,10.03
2018-10-15T07:47:47.785Z,9.93
2018-10-15T07:50:16.035Z,9.30
2018-10-15T07:52:43.961Z,10.23
2018-10-15T07:55:11.450Z,10.57
2018-10-15T07:57:39.346Z,9.30
2018-10-15T08:00:09.944Z,10.67
2018-10-15T08:02:37.423Z,9.70
2018-10-15T08:05:05.022Z,9.73
2018-10-15T08:07:32.489Z,9.23
2018-10-15T08:09:59.999Z,9.53
2018-10-15T08:12:27.370Z,9.20
2018-10-15T08:14:54.904Z,9.60
2018-10-15T08:17:22.241Z,8.57
2018-10-15T08:19:49.600Z,8.33
2018-10-15T08:22:17.046Z,8.27
2018-10-15T08:24:44.513Z,8.60
2018-10-15T08:27:11.887Z,8.97
2018-10-15T08:29:39.450Z,7.40
2018-10-15T08:32:06.809Z,7.20
2018-10-15T08:34:34.211Z,8.17
2018-10-15T08:37:01.621Z,7.33
2018-10-15T08:39:29.057Z,7.33
2018-10-15T08:41:56.415Z,6.70
2018-10-15T08:44:23.874Z,6.73
2018-10-15T08:46:51.240Z,6.67
2018-10-15T08:49:18.697Z,6.80
2018-10-15T08:51:46.061Z,6.87
2018-10-15T08:54:13.446Z,6.87
2018-10-15T08:56:40.835Z,6.47
2018-10-15T08:59:08.234Z,7.53
2018-10-15T09:01:35.786Z,6.43
2018-10-15T09:04:03.160Z,5.83
2018-10-15T09:06:30.634Z,6.03
2018-10-15T09:08:58.182Z,5.97
2018-10-15T09:11:25.489Z,6.17
2018-10-15T09:13:53.630Z,6.27
2018-10-15T09:16:21.128Z,6.47
2018-10-15T09:18:48.531Z,6.57
2018-10-15T09:21:16.005Z,6.30
2018-10-15T09:23:43.340Z,6.63
2018-10-15T09:26:10.770Z,6.37
2018-10-15T09:28:38.174Z,6.33
2018-10-15T09:31:05.687Z,5.63
2018-10-15T09:33:33.001Z,6.30
2018-10-15T09:36:00.608Z,5.50
2018-10-15T09:38:28.004Z,5.40
2018-10-15T09:40:55.552Z,5.70
2018-10-15T09:43:23.861Z,5.87
2018-10-15T09:45:51.361Z,5.37
2018-10-15T09:48:18.701Z,4.97
2018-10-15T09:50:46.273Z,5.57
2018-10-15T09:53:13.804Z,5.17
2018-10-15T09:55:41.074Z,4.50
2018-10-15T09:58:08.548Z,4.67
2018-10-15T10:00:41.317Z,4.93
2018-10-15T10:03:08.752Z,5.67
2018-10-15T10:05:36.118Z,4.57
2018-10-15T10:08:03.511Z,5.17
2018-10-15T10:10:30.992Z,4.90
2018-10-15T10:12:58.397Z,5.30
2018-10-15T10:15:25.709Z,5.50
2018-10-15T10:17:53.396Z,5.50
2018-10-15T10:20:20.550Z,4.80
2018-10-15T10:22:47.890Z,5.13
2018-10-15T10:25:16.834Z,5.30
2018-10-15T10:27:44.196Z,5.60
2018-10-15T10:30:12.829Z,5.27
2018-10-15T10:32:40.213Z,5.10
2018-10-15T10:35:18.714Z,5.57
2018-10-15T10:37:46.069Z,5.10
2018-10-15T10:40:13.621Z,5.17
2018-10-15T10:42:40.856Z,4.97
2018-10-15T10:45:08.550Z,4.47
2018-10-15T10:47:35.956Z,4.80
2018-10-15T10:50:03.412Z,4.50
2018-10-15T10:52:31.128Z,4.60
2018-10-15T10:54:58.569Z,4.72
2018-10-15T10:57:25.939Z,5.25
2018-10-15T10:59:53.385Z,4.50
2018-10-15T11:02:21.009Z,4.10
2018-10-15T11:04:48.266Z,4.60
2018-10-15T11:07:15.645Z,4.37
2018-10-15T11:09:43.197Z,5.60
2018-10-15T11:12:10.547Z,4.85
2018-10-15T11:14:38.008Z,4.55
2018-10-15T11:17:05.396Z,4.58
2018-10-15T11:19:32.750Z,4.78
2018-10-15T11:22:00.244Z,5.97
2018-10-15T11:24:27.601Z,5.42
2018-10-15T11:26:54.989Z,4.47
2018-10-15T11:29:22.381Z,5.53
2018-10-15T11:31:49.905Z,6.17
2018-10-15T11:34:17.304Z,5.95
2018-10-15T11:36:44.657Z,5.50
2018-10-15T11:39:12.105Z,5.80
2018-10-15T11:41:39.464Z,5.72
2018-10-15T11:44:06.898Z,4.78
2018-10-15T11:46:34.335Z,5.28
2018-10-15T11:49:01.762Z,5.05
2018-10-15T11:51:29.464Z,5.65
2018-10-15T11:53:56.816Z,5.45
2018-10-15T11:56:24.176Z,5.15
2018-10-15T11:58:51.572Z,5.12
2018-10-15T12:01:18.921Z,5.70
2018-10-15T12:03:46.292Z,5.95
2018-10-15T12:06:14.085Z,5.72
2018-10-15T12:08:41.539Z,6.12
2018-10-15T12:11:08.952Z,6.08
2018-10-15T12:13:36.314Z,5.60
2018-10-15T12:16:03.721Z,6.00
2018-10-15T12:18:31.081Z,5.97
2018-10-15T12:20:58.465Z,5.95
2018-10-15T12:23:25.941Z,6.85
2018-10-15T12:25:53.419Z,5.80
2018-10-15T12:28:20.803Z,5.83
2018-10-15T12:30:48.182Z,5.97
2018-10-15T12:33:15.557Z,5.67
2018-10-15T12:35:42.929Z,6.50
2018-10-15T12:38:10.290Z,6.03
2018-10-15T12:40:37.740Z,5.25
2018-10-15T12:43:05.133Z,5.42
2018-10-15T12:45:37.896Z,5.22
2018-10-15T12:48:05.773Z,5.15
2018-10-15T12:50:33.130Z,6.12
2018-10-15T12:53:00.489Z,6.35
2018-10-15T12:55:27.891Z,5.72
2018-10-15T12:57:55.263Z,5.53
2018-10-15T13:00:22.762Z,6.37
2018-10-15T13:02:50.153Z,5.80
2018-10-15T13:05:19.409Z,5.87
2018-10-15T13:07:46.777Z,6.15
2018-10-15T13:10:14.165Z,5.40
2018-10-15T13:12:41.522Z,5.58
2018-10-15T13:15:08.905Z,5.17
2018-10-15T13:17:36.425Z,5.58
2018-10-15T13:20:03.941Z,7.03
2018-10-15T13:22:31.305Z,5.87
2018-10-15T13:24:58.845Z,5.70
2018-10-15T13:27:26.289Z,6.28
2018-10-15T13:29:53.646Z,5.85
2018-10-15T13:32:21.034Z,5.25
2018-10-15T13:34:48.412Z,6.75
2018-10-15T13:37:15.809Z,6.03
2018-10-15T13:39:43.521Z,5.40
2018-10-15T13:42:10.918Z,5.67
2018-10-15T13:44:38.417Z,5.47
2018-10-15T13:47:05.797Z,5.72
2018-10-15T13:49:33.157Z,5.78
2018-10-15T13:52:00.781Z,6.00
2018-10-15T13:54:28.174Z,6.00
2018-10-15T13:56:55.537Z,6.08
2018-10-15T13:59:22.897Z,5.15
2018-10-15T14:01:50.282Z,6.08
2018-10-15T14:04:17.657Z,5.62
2018-10-15T14:06:45.018Z,5.55
2018-10-15T14:09:12.594Z,5.80
2018-10-15T14:11:40.491Z,5.75
2018-10-15T14:14:08.294Z,7.05
2018-10-15T14:16:35.669Z,6.90
2018-10-15T14:19:03.028Z,8.23
2018-10-15T14:21:30.537Z,11.40
2018-10-15T14:23:57.961Z,11.35
2018-10-15T14:26:25.323Z,12.63
2018-10-15T14:28:52.950Z,6.42
2018-10-15T14:31:20.505Z,6.75
2018-10-15T14:33:47.984Z,7.92
2018-10-15T14:36:15.347Z,7.17
2018-10-15T14:38:42.756Z,6.17
2018-10-15T14:41:10.108Z,6.85
2018-10-15T14:43:37.569Z,7.55
2018-10-15T14:46:05.194Z,5.67
2018-10-15T14:48:32.557Z,6.67
2018-10-15T14:51:00.071Z,5.90
2018-10-15T14:53:27.557Z,5.93
2018-10-15T14:55:54.934Z,6.07
2018-10-15T14:58:23.024Z,6.83
2018-10-15T15:00:50.417Z,6.50
2018-10-15T15:03:17.773Z,6.93
2018-10-15T15:05:45.218Z,6.37
2018-10-15T15:08:12.737Z,7.13
2018-10-15T15:10:45.534Z,6.17
2018-10-15T15:13:18.605Z,5.30
2018-10-15T15:15:45.926Z,5.40
2018-10-15T15:18:13.302Z,6.07
2018-10-15T15:20:40.679Z,5.40
2018-10-15T15:23:08.025Z,5.67
2018-10-15T15:25:35.378Z,5.97
2018-10-15T15:28:02.955Z,6.00
2018-10-15T15:30:30.294Z,7.13
2018-10-15T15:32:57.670Z,6.17
2018-10-15T15:35:25.113Z,7.20
2018-10-15T15:37:52.461Z,5.90
2018-10-15T15:40:20.049Z,7.13
2018-10-15T15:42:47.432Z,7.03
2018-10-15T15:45:14.917Z,6.80
2018-10-15T15:47:42.276Z,6.47
2018-10-15T15:50:10.368Z,6.03
2018-10-15T15:52:37.889Z,6.20
2018-10-15T15:55:05.793Z,6.40
2018-10-15T15:57:33.180Z,6.40
2018-10-15T16:00:00.525Z,7.40
2018-10-15T16:02:27.889Z,6.10
2018-10-15T16:04:55.481Z,7.37
2018-10-15T16:07:22.940Z,7.57
2018-10-15T16:09:50.292Z,9.23
2018-10-15T16:12:17.693Z,7.33
2018-10-15T16:14:45.146Z,7.73
2018-10-15T16:17:12.502Z,7.70
2018-10-15T16:19:39.910Z,7.37
2018-10-15T16:22:07.261Z,7.00
2018-10-15T16:24:34.613Z,7.20
2018-10-15T16:27:02.007Z,6.80
2018-10-15T16:29:29.385Z,6.57
2018-10-15T16:31:56.725Z,6.87
2018-10-15T16:34:24.181Z,6.47
2018-10-15T16:36:51.647Z,6.40
2018-10-15T16:39:19.016Z,5.77
2018-10-15T16:41:46.968Z,6.73
2018-10-15T16:44:14.814Z,6.70
2018-10-15T16:46:42.509Z,7.87
2018-10-15T16:49:12.110Z,6.50
2018-10-15T16:51:40.411Z,6.93
2018-10-15T16:54:08.789Z,6.47
2018-10-15T16:56:36.269Z,7.37
2018-10-15T16:59:03.745Z,7.97
2018-10-15T17:01:31.102Z,8.03
2018-10-15T17:03:58.481Z,7.50
2018-10-15T17:06:25.853Z,7.80
2018-10-15T17:08:53.454Z,7.47
2018-10-15T17:11:20.916Z,7.07
2018-10-15T17:13:48.288Z,7.23
2018-10-15T17:16:15.646Z,7.90
2018-10-15T17:18:43.253Z,7.70
2018-10-15T17:21:10.686Z,8.13
2018-10-15T17:23:38.054Z,7.60
2018-10-15T17:26:05.525Z,7.93
2018-10-15T17:28:32.924Z,8.23
2018-10-15T17:31:00.313Z,8.47
2018-10-15T17:33:27.817Z,9.57
2018-10-15T17:35:55.235Z,10.03
2018-10-15T17:38:22.768Z,8.70
2018-10-15T17:40:50.257Z,9.17
2018-10-15T17:43:17.823Z,7.93
2018-10-15T17:45:45.217Z,8.70
2018-10-15T17:48:12.638Z,8.13
2018-10-15T17:50:40.037Z,8.10
2018-10-15T17:53:07.546Z,7.83
2018-10-15T17:55:34.964Z,7.83
2018-10-15T17:58:02.413Z,7.30
2018-10-15T18:00:32.850Z,8.83
2018-10-15T18:03:00.246Z,8.43
2018-10-15T18:05:27.663Z,8.50
2018-10-15T18:07:55.117Z,8.63
2018-10-15T18:10:22.604Z,7.60
2018-10-15T18:12:50.045Z,9.10
2018-10-15T18:15:17.540Z,8.80
2018-10-15T18:17:45.018Z,8.67
2018-10-15T18:20:12.433Z,8.67
2018-10-15T18:22:39.869Z,8.67
2018-10-15T18:25:07.954Z,9.00
2018-10-15T18:27:35.491Z,9.17
2018-10-15T18:30:03.156Z,9.10
2018-10-15T18:32:30.677Z,10.83
2018-10-15T18:34:58.058Z,13.23
2018-10-15T18:37:25.654Z,15.03
2018-10-15T18:39:53.213Z,10.20
2018-10-15T18:42:20.644Z,12.53
2018-10-15T18:44:48.170Z,11.43
2018-10-15T18:47:15.878Z,10.80
2018-10-15T18:49:43.300Z,14.83
2018-10-15T18:52:10.819Z,11.93
2018-10-15T18:54:38.179Z,14.43
2018-10-15T18:57:05.643Z,12.60
2018-10-15T18:59:33.094Z,11.70
2018-10-15T19:02:00.543Z,11.03
2018-10-15T19:04:28.069Z,10.13
2018-10-15T19:06:55.746Z,10.30
2018-10-15T19:09:25.894Z,10.10
2018-10-15T19:11:53.669Z,9.27
2018-10-15T19:14:21.087Z,10.30
2018-10-15T19:16:48.592Z,9.40
2018-10-15T19:19:16.197Z,11.20
2018-10-15T19:21:43.590Z,10.00
2018-10-15T19:24:11.195Z,10.97
2018-10-15T19:26:38.729Z,11.07
2018-10-15T19:29:06.141Z,10.90
2018-10-15T19:31:33.569Z,9.90
2018-10-15T19:34:01.046Z,10.73
2018-10-15T19:36:28.598Z,10.03
2018-10-15T19:38:56.093Z,10.33
2018-10-15T19:41:23.691Z,10.23
2018-10-15T19:43:51.160Z,9.53
2018-10-15T19:46:18.700Z,10.03
2018-10-15T19:48:46.093Z,9.50
2018-10-15T19:51:13.469Z,10.27
2018-10-15T19:53:40.941Z,10.07
2018-10-15T19:56:08.314Z,11.90
2018-10-15T19:58:35.800Z,10.40
2018-10-15T20:01:03.177Z,9.07
2018-10-15T20:03:30.707Z,11.00
2018-10-15T20:05:58.019Z,9.50
2018-10-15T20:08:25.490Z,11.10
2018-10-15T20:10:52.873Z,9.10
2018-10-15T20:13:20.241Z,20.83
2018-10-15T20:15:47.686Z,17.67
2018-10-15T20:18:15.147Z,13.60
2018-10-15T20:20:42.618Z,12.67
2018-10-15T20:23:10.141Z,10.23
2018-10-15T20:25:37.529Z,11.00
2018-10-15T20:28:05.005Z,11.10
2018-10-15T20:30:34.802Z,11.33
2018-10-15T20:33:02.180Z,10.97
2018-10-15T20:35:37.914Z,11.53
2018-10-15T20:38:06.045Z,9.87
2018-10-15T20:40:37.861Z,9.70
2018-10-15T20:43:10.642Z,11.43
2018-10-15T20:45:38.267Z,10.87
2018-10-15T20:48:06.006Z,11.30
2018-10-15T20:50:33.452Z,10.83
2018-10-15T20:53:01.275Z,13.80
2018-10-15T20:55:29.300Z,12.93
2018-10-15T20:57:57.238Z,13.40
2018-10-15T21:00:25.227Z,12.70
2018-10-15T21:02:52.969Z,11.07
2018-10-15T21:05:20.825Z,12.03
2018-10-15T21:07:49.174Z,14.67
2018-10-15T21:10:17.125Z,22.20
2018-10-15T21:12:45.003Z,13.40
2018-10-15T21:15:13.112Z,13.67
2018-10-15T21:17:41.738Z,13.37
2018-10-15T21:20:10.506Z,13.07
2018-10-15T21:22:39.683Z,14.03
2018-10-15T21:25:08.316Z,14.80
2018-10-15T21:27:36.551Z,15.83
2018-10-15T21:30:04.311Z,16.70
2018-10-15T21:32:31.781Z,14.33
2018-10-15T21:34:59.267Z,14.13
2018-10-15T21:37:26.731Z,14.00
2018-10-15T21:39:54.319Z,13.70
2018-10-15T21:42:22.098Z,12.90
2018-10-15T21:44:49.583Z,13.73
2018-10-15T21:47:17.110Z,14.23
2018-10-15T21:49:44.717Z,13.40
2018-10-15T21:52:12.553Z,14.23
2018-10-15T21:54:40.322Z,13.57
2018-10-15T21:57:08.267Z,16.47
2018-10-15T21:59:35.943Z,13.40
2018-10-15T22:02:03.471Z,13.67
2018-10-15T22:04:30.954Z,13.07
2018-10-15T22:06:58.696Z,17.57
2018-10-15T22:09:26.387Z,13.97
2018-10-15T22:11:54.275Z,15.97
2018-10-15T22:14:22.513Z,15.17
2018-10-15T22:16:50.671Z,15.83
2018-10-15T22:19:18.933Z,13.80
2018-10-15T22:21:46.867Z,13.17
2018-10-15T22:24:14.609Z,12.70
2018-10-15T22:26:42.635Z,12.83
2018-10-15T22:29:10.898Z,12.90
2018-10-15T22:31:39.335Z,15.10
2018-10-15T22:34:07.905Z,13.63
2018-10-15T22:36:35.964Z,14.17
2018-10-15T22:39:05.453Z,13.73
2018-10-15T22:41:33.474Z,13.33
2018-10-15T22:44:01.159Z,13.67
2018-10-15T22:46:28.990Z,12.73
2018-10-15T22:48:57.141Z,13.60
2018-10-15T22:51:25.255Z,13.53
2018-10-15T22:55:22.680Z,23.93
2018-10-15T22:57:50.577Z,26.47
2018-10-15T23:00:19.436Z,20.70
2018-10-15T23:02:48.247Z,12.60
2018-10-15T23:05:18.986Z,14.47
2018-10-15T23:07:51.120Z,11.53
2018-10-15T23:10:25.199Z,16.73
2018-10-15T23:12:56.946Z,12.03
2018-10-15T23:15:25.210Z,11.77
2018-10-15T23:17:58.954Z,13.50
2018-10-15T23:20:34.986Z,14.67
2018-10-15T23:23:16.814Z,16.50
2018-10-15T23:25:57.878Z,13.70
2018-10-15T23:28:46.328Z,12.20
2018-10-15T23:34:11.878Z,13.30
2018-10-15T23:36:47.926Z,15.77
2018-10-15T23:39:33.437Z,15.63
2018-10-15T23:44:42.689Z,14.23
2018-10-15T23:47:21.923Z,14.30
2018-10-15T23:52:42.682Z,12.67
2018-10-15T23:55:23.487Z,13.53
2018-10-15T23:58:12.781Z,11.80
